ADDS METAR Data INFO
IDs: Format: Raw Decoded Include TAF

Data at: 1814 UTC 20 Jul 2018

KFST 201753Z AUTO 15012G18KT 10SM CLR 36/09 A3004 RMK AO2 SLP114 T03560094 10356 20222 58005
KFST 201653Z AUTO 15010KT 10SM CLR 34/11 A3005 RMK AO2 SLP117 T03440106
KFST 201053Z AUTO 18008KT 10SM CLR 24/10 A3001 RMK AO2 SLP104 T02440100
KFST 200953Z AUTO 18010KT 10SM CLR 25/10 A2999 RMK AO2 SLP099 T02500100
KFST 200853Z AUTO 17010KT 10SM CLR 26/10 A2998 RMK AO2 SLP092 T02610100 58009
KFST 200753Z AUTO 16008KT 10SM CLR 25/10 A2999 RMK AO2 SLP098 T02500100
KFST 200653Z AUTO 15007KT 10SM CLR 26/09 A3000 RMK AO2 SLP102 T02610094
KFST 200553Z AUTO 16008KT 10SM CLR 28/09 A3001 RMK AO2 SLP102 T02780094 10372 20278 403830228 51015
KFST 200453Z AUTO 16011KT 10SM CLR 29/08 A3000 RMK AO2 SLP101 T02890083
KFST 200353Z AUTO 14011KT 10SM CLR 31/07 A2999 RMK AO2 SLP095 T03110072
KFST 200253Z AUTO 13011KT 10SM CLR 33/08 A2996 RMK AO2 SLP087 T03280078 53013
KFST 200153Z AUTO 12006KT 10SM CLR 34/08 A2994 RMK AO2 SLP082 T03390078
KFST 200053Z AUTO 14008KT 10SM CLR 36/06 A2992 RMK AO2 SLP076 T03610056
KFST 192353Z AUTO 14011KT 10SM CLR 37/04 A2992 RMK AO2 SLP074 T03720039 10383 20361 56015
KFST 192253Z AUTO 16014KT 10SM CLR 38/06 A2993 RMK AO2 SLP079 T03780061
KFST 192153Z AUTO 13007KT 10SM CLR 38/06 A2995 RMK AO2 SLP084 T03780061
KFST 192053Z AUTO 14007KT 10SM CLR 38/07 A2997 RMK AO2 SLP089 T03780067 56017
KFST 191953Z AUTO 19012G19KT 10SM CLR 37/09 A2998 RMK AO2 SLP093 T03720094
KFST 191853Z AUTO 12008KT 10SM CLR 37/09 A3000 RMK AO2 SLP099 T03720089
KFST 191753Z AUTO 14010G17KT 10SM CLR 36/10 A3002 RMK AO2 SLP106 T03610100 10361 20233 58005
KFST 191653Z AUTO 17011KT 10SM CLR 35/11 A3003 RMK AO2 SLP110 T03500111
KFST 191553Z AUTO 16012KT 10SM CLR 34/12 A3003 RMK AO2 SLP110 T03390117
KFST 191453Z AUTO 19007KT 10SM CLR 30/14 A3004 RMK AO2 SLP114 T03000139 51010
KFST 191353Z AUTO 17009KT 10SM CLR 26/13 A3003 RMK AO2 SLP114 T02610133
KFST 191253Z AUTO 16008KT 10SM CLR 24/12 A3002 RMK AO2 SLP110 T02440117
KFST 191153Z AUTO 17009KT 10SM CLR 23/11 A3000 RMK AO2 SLP103 T02330111 10272 20228 53006
KFST 191053Z AUTO 19007KT 10SM CLR 23/12 A2999 RMK AO2 SLP099 T02280122
KFST 190953Z AUTO 16009KT 10SM CLR 24/12 A2998 RMK AO2 SLP096 T02440117
KFST 190853Z AUTO 17009KT 10SM CLR 25/11 A2998 RMK AO2 SLP095 T02500111 56004
KFST 190753Z AUTO 17011KT 10SM CLR 26/12 A2998 RMK AO2 SLP096 T02610117
KFST 190653Z AUTO 17011KT 10SM CLR 27/12 A2999 RMK AO2 SLP098 T02670117